createdAt,value
2018-07-26T00:04:22.252Z,60.8
2018-07-26T00:09:24.654Z,60.7
2018-07-26T00:14:27.051Z,60.4
2018-07-26T00:19:29.547Z,60.7
2018-07-26T00:24:32.147Z,60.8
2018-07-26T00:34:36.821Z,61.2
2018-07-26T00:39:39.236Z,61.1
2018-07-26T00:44:41.689Z,61
2018-07-26T00:49:44.152Z,61.4
2018-07-26T00:54:46.564Z,62.3
2018-07-26T00:59:49.005Z,62.5
2018-07-26T01:04:51.483Z,62.4
2018-07-26T01:09:53.884Z,62.7
2018-07-26T01:14:56.338Z,62.6
2018-07-26T01:19:58.991Z,63.2
2018-07-26T01:25:01.281Z,63.4
2018-07-26T01:30:03.818Z,63.7
2018-07-26T01:35:06.443Z,63.6
2018-07-26T01:40:08.533Z,63.9
2018-07-26T01:45:10.990Z,64.2
2018-07-26T01:50:13.476Z,64.4
2018-07-26T01:55:15.854Z,64.2
2018-07-26T02:00:18.480Z,64.3
2018-07-26T02:05:21.079Z,64.6
2018-07-26T02:10:23.297Z,64.9
2018-07-26T02:15:25.627Z,65.2
2018-07-26T02:20:28.192Z,66
2018-07-26T02:25:30.683Z,65.7
2018-07-26T02:30:32.930Z,65.5
2018-07-26T02:35:35.398Z,65.8
2018-07-26T02:40:38.039Z,65.5
2018-07-26T02:45:40.342Z,65.7
2018-07-26T02:50:43.213Z,65.3
2018-07-26T02:55:45.518Z,65.4
2018-07-26T03:00:47.934Z,65.6
2018-07-26T03:05:50.094Z,65.6
2018-07-26T03:10:52.485Z,65.7
2018-07-26T03:15:55.018Z,65.9
2018-07-26T03:20:57.436Z,65.8
2018-07-26T03:25:59.892Z,65.6
2018-07-26T03:31:02.237Z,65.9
2018-07-26T03:36:04.704Z,66.3
2018-07-26T03:41:07.113Z,66.7
2018-07-26T03:46:09.540Z,67.5
2018-07-26T03:51:12.153Z,67.7
2018-07-26T03:56:14.441Z,67.1
2018-07-26T04:01:17.088Z,66.9
2018-07-26T04:06:19.436Z,67.1
2018-07-26T04:11:21.754Z,67.7
2018-07-26T04:16:24.207Z,67.4
2018-07-26T04:21:26.717Z,67.2
2018-07-26T04:26:29.077Z,67.2
2018-07-26T04:31:31.533Z,66.8
2018-07-26T04:36:33.978Z,66.5
2018-07-26T04:41:36.465Z,66.3
2018-07-26T04:46:39.211Z,65.9
2018-07-26T04:51:41.473Z,65.9
2018-07-26T04:56:43.797Z,65.8
2018-07-26T05:01:46.713Z,65.4
2018-07-26T05:06:48.613Z,65.3
2018-07-26T05:11:51.184Z,64.4
2018-07-26T05:16:53.847Z,63.7
2018-07-26T05:21:55.980Z,62.6
2018-07-26T05:26:58.473Z,60
2018-07-26T05:32:01.334Z,52.5
2018-07-26T05:37:03.666Z,44.6
2018-07-26T05:47:08.288Z,35.7
2018-07-26T05:52:10.825Z,33.3
2018-07-26T05:57:13.014Z,31.8
2018-07-26T06:02:15.615Z,30
2018-07-26T06:07:18.369Z,29.9
2018-07-26T06:12:20.580Z,30.1
2018-07-26T06:17:22.906Z,29.2
2018-07-26T06:22:25.292Z,28.2
2018-07-26T06:27:27.768Z,28.3
2018-07-26T06:32:30.285Z,28.1
2018-07-26T06:37:32.891Z,27.2
2018-07-26T06:42:35.640Z,27.9
2018-07-26T06:47:37.448Z,27.5
2018-07-26T06:52:39.915Z,26.7
2018-07-26T06:57:42.384Z,26.2
2018-07-26T07:02:44.760Z,25.9
2018-07-26T07:07:47.258Z,25.2
2018-07-26T07:12:49.654Z,26.2
2018-07-26T07:17:52.278Z,25.8
2018-07-26T07:22:54.555Z,25.7
2018-07-26T07:27:57.005Z,26
2018-07-26T07:32:59.467Z,25.3
2018-07-26T07:38:02.658Z,26.5
2018-07-26T07:43:04.328Z,27.7
2018-07-26T07:48:06.687Z,27.1
2018-07-26T07:53:09.730Z,26.2
2018-07-26T07:58:11.617Z,26.1
2018-07-26T08:03:14.027Z,25.8
2018-07-26T08:08:16.688Z,26.3
2018-07-26T08:13:18.913Z,24.7
2018-07-26T08:18:21.365Z,24.6
2018-07-26T08:23:23.855Z,24.2
2018-07-26T08:28:26.298Z,24.2
2018-07-26T08:33:28.930Z,23.6
2018-07-26T08:38:31.307Z,25.4
2018-07-26T08:43:33.579Z,25.7
2018-07-26T08:48:36.022Z,26.4
2018-07-26T08:53:38.464Z,26.2
2018-07-26T08:58:40.951Z,26.3
2018-07-26T09:03:43.385Z,26.2
2018-07-26T09:08:45.797Z,25.3
2018-07-26T09:13:48.616Z,25.2
2018-07-26T09:18:50.986Z,28.2
2018-07-26T09:23:53.108Z,28.6
2018-07-26T09:28:55.611Z,28.1
2018-07-26T09:33:58.116Z,29.5
2018-07-26T09:39:00.720Z,31.7
2018-07-26T09:44:02.875Z,32.8
2018-07-26T09:49:05.416Z,34.6
2018-07-26T09:54:07.910Z,36.4
2018-07-26T09:59:10.271Z,35.2
2018-07-26T10:04:12.721Z,33.2
2018-07-26T10:09:15.298Z,32.4
2018-07-26T10:14:17.602Z,33.5
2018-07-26T10:19:20.073Z,34
2018-07-26T10:24:22.665Z,34.9
2018-07-26T10:29:24.859Z,35.3
2018-07-26T10:34:27.311Z,35.1
2018-07-26T10:39:29.771Z,33.6
2018-07-26T10:49:34.671Z,32.1
2018-07-26T10:54:37.185Z,31.2
2018-07-26T10:59:39.510Z,31.3
2018-07-26T11:04:42.272Z,31.3
2018-07-26T11:09:44.462Z,31.7
2018-07-26T11:14:46.905Z,32.8
2018-07-26T11:19:49.371Z,33.6
2018-07-26T11:24:52.184Z,32.9
2018-07-26T11:29:54.445Z,32.9
2018-07-26T11:34:56.603Z,32.8
2018-07-26T11:39:59.167Z,33.3
2018-07-26T11:45:06.502Z,33.7
2018-07-26T11:50:04.009Z,34.1
2018-07-26T11:55:06.363Z,33.9
2018-07-26T12:00:08.891Z,33.7
2018-07-26T12:05:12.725Z,32
2018-07-26T12:10:14.383Z,32
2018-07-26T12:15:19.239Z,31.5
2018-07-26T12:20:18.683Z,0
2018-07-26T12:25:21.009Z,31.8
2018-07-26T12:30:23.519Z,32.7
2018-07-26T12:35:26.100Z,33.1
2018-07-26T12:40:28.399Z,30.9
2018-07-26T12:45:30.822Z,31.8
2018-07-26T12:50:33.276Z,32.2
2018-07-26T12:55:35.867Z,32.4
2018-07-26T13:00:38.549Z,30.4
2018-07-26T13:05:40.686Z,30.3
2018-07-26T13:10:43.049Z,29.8
2018-07-26T13:15:45.481Z,29.1
2018-07-26T13:20:47.878Z,29.5
2018-07-26T13:25:50.305Z,29.4
2018-07-26T13:30:53.036Z,29.2
2018-07-26T13:35:55.252Z,29.2
2018-07-26T13:40:57.634Z,29.5
2018-07-26T13:46:00.586Z,29.1
2018-07-26T13:51:02.566Z,29.4
2018-07-26T13:56:04.965Z,29.6
2018-07-26T14:01:07.411Z,29.2
2018-07-26T14:06:09.981Z,29.3
2018-07-26T14:11:12.447Z,29.1
2018-07-26T14:16:15.098Z,29
2018-07-26T14:21:17.191Z,28.9
2018-07-26T14:26:19.677Z,28.5
2018-07-26T14:31:22.064Z,28.1
2018-07-26T14:36:24.670Z,28.5
2018-07-26T14:41:27.131Z,28.1
2018-07-26T14:46:29.441Z,28
2018-07-26T14:51:31.928Z,27.8
2018-07-26T14:56:34.267Z,27.9
2018-07-26T15:01:36.785Z,27.3
2018-07-26T15:11:41.676Z,28.7
2018-07-26T15:16:44.175Z,28.8
2018-07-26T15:21:46.488Z,28.6
2018-07-26T15:26:48.949Z,28.2
2018-07-26T15:31:52.603Z,28.8
2018-07-26T15:36:54.383Z,28.6
2018-07-26T15:41:56.260Z,28.7
2018-07-26T15:46:58.785Z,28.7
2018-07-26T15:52:01.210Z,28.9
2018-07-26T15:57:03.842Z,28.9
2018-07-26T16:02:06.012Z,28.7
2018-07-26T16:07:08.484Z,29.1
2018-07-26T16:12:11.039Z,29.1
2018-07-26T16:17:13.839Z,29.3
2018-07-26T16:22:15.819Z,29.5
2018-07-26T16:27:18.227Z,29
2018-07-26T16:32:20.671Z,29.2
2018-07-26T16:37:23.104Z,30
2018-07-26T16:42:25.757Z,30.6
2018-07-26T16:47:27.999Z,30.9
2018-07-26T16:52:30.494Z,30.9
2018-07-26T16:57:32.927Z,30.7
2018-07-26T17:02:35.322Z,30.9
2018-07-26T17:07:37.749Z,29.9
2018-07-26T17:12:40.565Z,29.8
2018-07-26T17:17:42.671Z,30
2018-07-26T17:22:45.384Z,30.6
2018-07-26T17:27:47.601Z,31.2
2018-07-26T17:32:49.970Z,31.6
2018-07-26T17:37:52.464Z,31.5
2018-07-26T17:42:54.866Z,31.7
2018-07-26T17:47:57.313Z,31.9
2018-07-26T17:52:59.758Z,31.9
2018-07-26T17:58:02.234Z,31.2
2018-07-26T18:03:04.669Z,31.4
2018-07-26T18:08:07.089Z,31.3
2018-07-26T18:13:09.505Z,31.7
2018-07-26T18:18:11.963Z,32
2018-07-26T18:23:14.475Z,32.2
2018-07-26T18:28:16.922Z,32.5
2018-07-26T18:33:19.435Z,32.7
2018-07-26T18:38:21.780Z,33.2
2018-07-26T18:43:24.382Z,33.4
2018-07-26T18:48:26.737Z,34.3
2018-07-26T18:53:29.365Z,35.1
2018-07-26T18:58:31.628Z,35.5
2018-07-26T19:03:34.207Z,36
2018-07-26T19:08:36.380Z,36.4
2018-07-26T19:13:39.469Z,36.9
2018-07-26T19:18:41.372Z,38
2018-07-26T19:23:43.705Z,38.2
2018-07-26T19:28:46.188Z,39.2
2018-07-26T19:33:48.611Z,39.5
2018-07-26T19:43:53.664Z,40.7
2018-07-26T19:48:56.268Z,41.9
2018-07-26T19:53:58.384Z,42
2018-07-26T19:59:00.919Z,42.2
2018-07-26T20:04:03.522Z,42.5
2018-07-26T20:09:05.706Z,42.6
2018-07-26T20:14:11.009Z,43.1
2018-07-26T20:19:10.609Z,43.6
2018-07-26T20:24:13.010Z,44.2
2018-07-26T20:29:15.630Z,44.9
2018-07-26T20:34:17.941Z,45.8
2018-07-26T20:44:22.765Z,47
2018-07-26T20:49:25.287Z,47.2
2018-07-26T20:54:27.676Z,47.5
2018-07-26T20:59:30.166Z,47.5
2018-07-26T21:04:32.697Z,47.9
2018-07-26T21:09:34.952Z,48.5
2018-07-26T21:14:37.541Z,48.9
2018-07-26T21:19:39.872Z,49.4
2018-07-26T21:24:42.296Z,50
2018-07-26T21:29:45.341Z,50.1
2018-07-26T21:34:47.154Z,50.4
2018-07-26T21:39:49.707Z,50.3
2018-07-26T21:44:52.125Z,50.8
2018-07-26T21:49:54.514Z,50.9
2018-07-26T21:54:56.919Z,50.7
2018-07-26T21:59:59.370Z,50.6
2018-07-26T22:05:01.964Z,51.1
2018-07-26T22:10:04.336Z,51.4
2018-07-26T22:15:06.741Z,51.7
2018-07-26T22:20:09.482Z,52
2018-07-26T22:25:11.574Z,51.8
2018-07-26T22:30:15.449Z,51.8
2018-07-26T22:35:16.593Z,52.4
2018-07-26T22:50:23.789Z,53.2
2018-07-26T22:55:26.212Z,53.2
2018-07-26T23:00:28.719Z,53.7
2018-07-26T23:05:31.183Z,53.9
2018-07-26T23:10:33.560Z,54.3
2018-07-26T23:15:35.990Z,54.2
2018-07-26T23:20:38.450Z,54.3
2018-07-26T23:25:41.471Z,54.3
2018-07-26T23:30:43.364Z,54.5
2018-07-26T23:35:45.769Z,54.7
2018-07-26T23:40:48.256Z,54.8
2018-07-26T23:45:50.635Z,55.1
2018-07-26T23:50:53.281Z,55.3
2018-07-26T23:55:55.506Z,55.9
